createdAt,value
2019-05-02T00:00:10.259Z,98826.46
2019-05-02T00:03:19.088Z,98826.04
2019-05-02T00:06:25.529Z,98836.09
2019-05-02T00:09:33.484Z,98836.35
2019-05-02T00:12:39.380Z,98821.83
2019-05-02T00:15:45.268Z,98830.00
2019-05-02T00:18:50.986Z,98824.08
2019-05-02T00:21:56.817Z,98828.98
2019-05-02T00:25:02.640Z,98828.98
2019-05-02T00:28:12.393Z,98829.81
2019-05-02T00:31:18.895Z,98821.66
2019-05-02T00:34:24.552Z,98815.77
2019-05-02T00:37:30.279Z,98827.42
2019-05-02T00:40:36.123Z,98820.28
2019-05-02T00:43:41.998Z,98823.35
2019-05-02T00:46:48.387Z,98816.09
2019-05-02T00:49:54.312Z,98816.09
2019-05-02T00:53:00.001Z,98824.63
2019-05-02T00:56:09.011Z,98814.90
2019-05-02T00:59:13.380Z,98814.64
2019-05-02T01:02:35.828Z,98807.77
2019-05-02T01:05:41.487Z,98811.53
2019-05-02T01:08:47.203Z,98811.53
2019-05-02T01:11:56.720Z,98815.09
2019-05-02T01:15:08.429Z,98817.20
2019-05-02T01:18:11.367Z,98820.67
2019-05-02T01:21:17.168Z,98818.34
2019-05-02T01:24:22.991Z,98821.29
2019-05-02T01:27:41.181Z,98832.75
2019-05-02T01:31:13.131Z,98824.52
2019-05-02T01:34:33.023Z,98827.68
2019-05-02T01:38:16.142Z,98835.23
2019-05-02T01:41:23.914Z,98827.56
2019-05-02T01:44:31.196Z,98832.95
2019-05-02T01:47:36.791Z,98831.21
2019-05-02T01:50:42.536Z,98831.76
2019-05-02T01:53:48.217Z,98834.53
2019-05-02T01:56:54.157Z,98833.96
2019-05-02T02:00:04.298Z,98841.77
2019-05-02T02:03:09.032Z,98838.61
2019-05-02T02:06:16.328Z,98838.92
2019-05-02T02:09:22.037Z,98840.21
2019-05-02T02:12:27.875Z,98841.17
2019-05-02T02:15:33.625Z,98840.44
2019-05-02T02:18:45.063Z,98843.97
2019-05-02T02:22:09.716Z,98846.11
2019-05-02T02:25:36.277Z,98844.88
2019-05-02T02:28:40.221Z,98850.56
2019-05-02T02:31:48.207Z,98845.29
2019-05-02T02:34:53.351Z,98852.80
2019-05-02T02:37:59.091Z,98856.34
2019-05-02T02:41:06.496Z,98853.02
2019-05-02T02:44:20.372Z,98855.23
2019-05-02T02:47:26.410Z,98846.80
2019-05-02T02:50:36.605Z,98844.38
2019-05-02T02:53:39.655Z,98861.70
2019-05-02T02:56:45.403Z,98851.14
2019-05-02T02:59:51.085Z,98857.60
2019-05-02T03:02:56.844Z,98853.69
2019-05-02T03:06:05.471Z,98862.57
2019-05-02T03:09:10.196Z,98864.56
2019-05-02T03:12:41.631Z,98871.32
2019-05-02T03:15:51.762Z,98872.76
2019-05-02T03:18:57.627Z,98876.84
2019-05-02T03:22:04.164Z,98868.72
2019-05-02T03:25:11.509Z,98879.09
2019-05-02T03:28:21.004Z,98883.04
2019-05-02T03:31:30.222Z,98886.06
2019-05-02T03:34:47.849Z,98891.59
2019-05-02T03:37:44.741Z,98895.23
2019-05-02T03:40:50.156Z,98900.11
2019-05-02T03:44:10.418Z,98904.17
2019-05-02T03:47:04.943Z,98906.59
2019-05-02T03:50:11.087Z,98908.58
2019-05-02T03:53:17.567Z,98907.87
2019-05-02T03:56:24.151Z,98916.45
2019-05-02T03:59:39.107Z,98922.81
2019-05-02T04:02:40.597Z,98927.37
2019-05-02T04:05:47.050Z,98932.02
2019-05-02T04:08:58.874Z,98940.46
2019-05-02T04:12:00.607Z,98942.63
2019-05-02T04:15:09.556Z,98939.95
2019-05-02T04:18:15.648Z,98947.44
2019-05-02T04:21:25.922Z,98945.25
2019-05-02T04:24:30.261Z,98947.95
2019-05-02T04:27:36.286Z,98948.98
2019-05-02T04:30:45.183Z,98951.16
2019-05-02T04:33:49.403Z,98960.11
2019-05-02T04:37:00.930Z,98962.20
2019-05-02T04:40:03.465Z,98966.02
2019-05-02T04:43:11.429Z,98969.89
2019-05-02T04:46:25.562Z,98968.41
2019-05-02T04:49:32.694Z,98960.34
2019-05-02T04:52:38.425Z,98970.63
2019-05-02T04:55:39.843Z,98969.59
2019-05-02T04:58:45.524Z,98972.63
2019-05-02T05:01:57.386Z,98971.91
2019-05-02T05:04:58.749Z,98974.72
2019-05-02T05:08:07.741Z,98979.45
2019-05-02T05:11:13.874Z,98980.91
2019-05-02T05:14:20.623Z,98991.39
2019-05-02T05:17:32.724Z,98996.88
2019-05-02T05:20:33.825Z,98995.84
2019-05-02T05:24:07.807Z,99001.59
2019-05-02T05:27:18.846Z,98997.36
2019-05-02T05:30:21.076Z,98997.64
2019-05-02T05:33:28.358Z,98996.06
2019-05-02T05:36:34.257Z,99011.27
2019-05-02T05:39:43.211Z,99015.03
2019-05-02T05:42:48.142Z,99026.47
2019-05-02T05:46:06.078Z,99025.32
2019-05-02T05:49:01.382Z,99034.61
2019-05-02T05:52:08.023Z,99034.66
2019-05-02T05:55:20.483Z,99041.91
2019-05-02T05:58:21.658Z,99032.32
2019-05-02T06:01:34.052Z,99038.56
2019-05-02T06:04:34.760Z,99035.23
2019-05-02T06:07:43.969Z,99037.25
2019-05-02T06:10:47.887Z,99043.38
2019-05-02T06:13:53.670Z,99036.91
2019-05-02T06:16:59.742Z,99039.36
2019-05-02T06:20:06.475Z,99031.45
2019-05-02T06:23:12.223Z,99026.86
2019-05-02T06:26:19.251Z,99025.75
2019-05-02T06:29:25.241Z,99027.06
2019-05-02T06:32:33.692Z,99026.19
2019-05-02T06:35:39.576Z,99026.98
2019-05-02T06:38:46.405Z,99036.78
2019-05-02T06:41:57.518Z,99045.98
2019-05-02T06:45:01.049Z,99052.41
2019-05-02T06:48:07.291Z,99045.30
2019-05-02T06:51:19.593Z,99052.72
2019-05-02T06:54:22.828Z,99053.54
2019-05-02T06:57:28.066Z,99052.44
2019-05-02T07:00:38.433Z,99055.87
2019-05-02T07:03:46.148Z,99060.28
2019-05-02T07:06:58.259Z,99052.54
2019-05-02T07:09:56.545Z,99042.53
2019-05-02T07:13:10.653Z,99051.50
2019-05-02T07:16:37.790Z,99053.30
2019-05-02T07:19:39.261Z,99053.30
2019-05-02T07:22:45.712Z,99048.52
2019-05-02T07:25:52.030Z,99048.46
2019-05-02T07:28:57.860Z,99058.48
2019-05-02T07:32:03.679Z,99055.30
2019-05-02T07:35:10.622Z,99053.13
2019-05-02T07:38:20.234Z,99058.68
2019-05-02T07:41:24.176Z,99053.25
2019-05-02T07:44:32.743Z,99053.17
2019-05-02T07:47:40.162Z,99058.55
2019-05-02T07:50:47.941Z,99061.55
2019-05-02T07:53:55.564Z,99057.78
2019-05-02T07:57:02.457Z,99047.05
2019-05-02T08:00:11.222Z,99049.37
2019-05-02T08:03:16.978Z,99056.39
2019-05-02T08:06:35.035Z,99054.42
2019-05-02T08:09:33.779Z,99053.61
2019-05-02T08:12:39.575Z,99050.80
2019-05-02T08:15:50.611Z,99053.16
2019-05-02T08:18:53.949Z,99051.95
2019-05-02T08:22:04.743Z,99055.28
2019-05-02T08:25:10.436Z,99040.22
2019-05-02T08:28:27.603Z,99053.72
2019-05-02T08:31:33.296Z,99047.73
2019-05-02T08:34:46.220Z,99041.52
2019-05-02T08:37:55.832Z,99044.56
2019-05-02T08:41:00.386Z,99045.42
2019-05-02T08:44:06.208Z,99040.74
2019-05-02T08:47:18.774Z,99051.50
2019-05-02T08:50:19.638Z,99045.83
2019-05-02T08:53:25.326Z,99048.03
2019-05-02T08:56:31.104Z,99057.55
2019-05-02T08:59:36.759Z,99045.77
2019-05-02T09:02:42.489Z,99042.95
2019-05-02T09:05:48.143Z,99046.31
2019-05-02T09:08:53.870Z,99042.39
2019-05-02T09:12:09.592Z,99033.95
2019-05-02T09:15:07.730Z,99033.02
2019-05-02T09:18:13.403Z,99039.89
2019-05-02T09:21:19.306Z,99036.27
2019-05-02T09:24:25.328Z,99033.95
2019-05-02T09:27:31.803Z,99029.02
2019-05-02T09:30:37.665Z,99046.86
2019-05-02T09:33:46.837Z,99036.80
2019-05-02T09:36:53.035Z,99026.46
2019-05-02T09:39:58.493Z,99021.00
2019-05-02T09:43:04.807Z,99022.84
2019-05-02T09:46:12.929Z,99019.94
2019-05-02T09:49:18.075Z,99016.28
2019-05-02T09:52:23.752Z,99015.27
2019-05-02T09:55:31.644Z,99005.00
2019-05-02T09:58:41.904Z,99013.66
2019-05-02T10:01:47.236Z,99000.51
2019-05-02T10:04:53.179Z,99010.02
2019-05-02T10:08:03.121Z,98992.47
2019-05-02T10:11:06.905Z,98984.88
2019-05-02T10:14:15.707Z,98990.56
2019-05-02T10:17:23.104Z,98989.80
2019-05-02T10:20:34.937Z,98985.46
2019-05-02T10:23:59.129Z,98987.75
2019-05-02T10:27:08.363Z,98975.52
2019-05-02T10:30:21.724Z,98985.98
2019-05-02T10:33:32.162Z,98975.41
2019-05-02T10:36:35.455Z,98972.05
2019-05-02T10:39:42.293Z,98973.36
2019-05-02T10:42:48.378Z,98960.84
2019-05-02T10:46:01.431Z,98961.02
2019-05-02T10:49:32.291Z,98952.01
2019-05-02T10:52:38.017Z,98961.22
2019-05-02T10:55:43.706Z,98951.41
2019-05-02T10:58:49.423Z,98949.80
2019-05-02T11:02:22.110Z,98944.59
2019-05-02T11:05:27.958Z,98947.38
2019-05-02T11:08:36.766Z,98935.59
2019-05-02T11:11:42.523Z,98938.27
2019-05-02T11:14:56.690Z,98934.95
2019-05-02T11:18:02.934Z,98929.09
2019-05-02T11:21:08.840Z,98919.73
2019-05-02T11:24:14.592Z,98914.44
2019-05-02T11:27:22.129Z,98919.19
2019-05-02T11:30:27.836Z,98928.90
2019-05-02T11:33:33.662Z,98925.95
2019-05-02T11:36:41.514Z,98922.08
2019-05-02T11:39:52.707Z,98917.08
2019-05-02T11:42:57.259Z,98928.61
2019-05-02T11:46:07.111Z,98930.16
2019-05-02T11:49:12.102Z,98938.34
2019-05-02T11:52:17.380Z,98926.16
2019-05-02T11:55:24.724Z,98931.95
2019-05-02T11:58:32.495Z,98931.20
2019-05-02T12:01:39.665Z,98929.48
2019-05-02T12:04:47.229Z,98921.91
2019-05-02T12:07:53.256Z,98920.29
2019-05-02T12:11:01.277Z,98926.61
2019-05-02T12:14:06.471Z,98918.73
2019-05-02T12:17:12.257Z,98919.27
2019-05-02T12:20:18.063Z,98919.91
2019-05-02T12:23:23.876Z,98923.45
2019-05-02T12:26:29.581Z,98927.66
2019-05-02T12:29:35.325Z,98921.84
2019-05-02T12:32:53.096Z,98921.11
2019-05-02T12:35:58.971Z,98921.72
2019-05-02T12:39:06.146Z,98918.34
2019-05-02T12:42:13.335Z,98907.04
2019-05-02T12:45:19.448Z,98899.00
2019-05-02T12:48:25.177Z,98891.28
2019-05-02T12:51:32.052Z,98894.63
2019-05-02T12:54:38.032Z,98884.11
2019-05-02T12:57:43.698Z,98871.16
2019-05-02T13:00:49.453Z,98880.55
2019-05-02T13:04:05.154Z,98877.17
2019-05-02T13:07:12.803Z,98879.48
2019-05-02T13:10:28.772Z,98884.70
2019-05-02T13:13:34.724Z,98884.28
2019-05-02T13:16:42.968Z,98883.55
2019-05-02T13:19:56.212Z,98887.00
2019-05-02T13:23:17.666Z,98882.88
2019-05-02T13:26:27.058Z,98877.53
2019-05-02T13:29:34.323Z,98882.34
2019-05-02T13:32:42.779Z,98874.45
2019-05-02T13:35:52.026Z,98872.42
2019-05-02T13:39:12.351Z,98872.58
2019-05-02T13:42:18.318Z,98881.63
2019-05-02T13:46:02.292Z,98871.20
2019-05-02T13:49:09.620Z,98863.73
2019-05-02T13:52:15.779Z,98868.73
2019-05-02T13:55:26.052Z,98862.74
2019-05-02T13:58:33.211Z,98856.30
2019-05-02T14:01:39.670Z,98850.97
2019-05-02T14:04:46.014Z,98859.09
2019-05-02T14:07:57.100Z,98851.12
2019-05-02T14:11:28.708Z,98851.14
2019-05-02T14:14:35.989Z,98851.19
2019-05-02T14:17:43.703Z,98843.53
2019-05-02T14:20:49.892Z,98842.20
2019-05-02T14:23:55.999Z,98849.38
2019-05-02T14:27:02.772Z,98842.00
2019-05-02T14:30:09.648Z,98849.97
2019-05-02T14:33:19.728Z,98845.51
2019-05-02T14:36:25.594Z,98844.45
2019-05-02T14:39:32.521Z,98835.37
2019-05-02T14:42:38.559Z,98839.60
2019-05-02T14:45:44.525Z,98844.06
2019-05-02T14:48:52.243Z,98835.91
2019-05-02T14:52:05.114Z,98848.13
2019-05-02T14:55:06.666Z,98845.67
2019-05-02T14:58:12.522Z,98844.63
2019-05-02T15:01:22.565Z,98841.87
2019-05-02T15:04:26.017Z,98845.64
2019-05-02T15:07:34.132Z,98845.23
2019-05-02T15:10:50.840Z,98854.72
2019-05-02T15:13:52.495Z,98847.67
2019-05-02T15:16:58.461Z,98846.33
2019-05-02T15:20:04.982Z,98856.14
2019-05-02T15:23:14.354Z,98847.39
2019-05-02T15:26:18.082Z,98848.47
2019-05-02T15:29:27.031Z,98853.93
2019-05-02T15:32:44.778Z,98852.14
2019-05-02T15:35:57.413Z,98848.59
2019-05-02T15:42:13.020Z,98847.91
2019-05-02T15:45:20.368Z,98838.09
2019-05-02T15:48:27.758Z,98841.58
2019-05-02T15:51:33.601Z,98840.34
2019-05-02T15:54:40.283Z,98845.17
2019-05-02T15:57:48.071Z,98848.17
2019-05-02T16:01:18.421Z,98859.43
2019-05-02T16:04:27.436Z,98850.68
2019-05-02T16:07:33.206Z,98851.52
2019-05-02T16:10:42.698Z,98852.68
2019-05-02T16:13:52.715Z,98852.09
2019-05-02T16:17:01.035Z,98848.17
2019-05-02T16:20:18.391Z,98851.88
2019-05-02T16:23:31.815Z,98847.44
2019-05-02T16:26:35.265Z,98858.23
2019-05-02T16:29:41.713Z,98860.38
2019-05-02T16:32:58.930Z,98861.17
2019-05-02T16:36:04.721Z,98859.63
2019-05-02T16:39:13.371Z,98864.43
2019-05-02T16:42:19.528Z,98858.23
2019-05-02T16:45:25.584Z,98869.86
2019-05-02T16:48:37.453Z,98869.47
2019-05-02T16:51:38.878Z,98870.86
2019-05-02T16:54:44.720Z,98872.48
2019-05-02T16:57:51.963Z,98878.13
2019-05-02T17:00:58.304Z,98882.16
2019-05-02T17:04:06.713Z,98885.97
2019-05-02T17:07:16.737Z,98883.86
2019-05-02T17:10:29.817Z,98890.55
2019-05-02T17:13:35.910Z,98893.33
2019-05-02T17:16:42.129Z,98896.34
2019-05-02T17:19:47.923Z,98895.69
2019-05-02T17:23:01.902Z,98900.11
2019-05-02T17:26:01.576Z,98894.61
2019-05-02T17:29:07.551Z,98898.13
2019-05-02T17:32:13.331Z,98908.54
2019-05-02T17:35:22.102Z,98911.48
2019-05-02T17:38:29.294Z,98915.64
2019-05-02T17:41:37.128Z,98919.20
2019-05-02T17:44:43.968Z,98923.22
2019-05-02T17:47:49.782Z,98925.14
2019-05-02T17:51:08.777Z,98927.25
2019-05-02T17:54:17.541Z,98930.89
2019-05-02T17:57:23.702Z,98939.84
2019-05-02T18:00:33.521Z,98943.48
2019-05-02T18:03:39.300Z,98945.16
2019-05-02T18:06:46.845Z,98946.99
2019-05-02T18:09:53.423Z,98951.38
2019-05-02T18:13:02.667Z,98954.03
2019-05-02T18:16:15.081Z,98955.99
2019-05-02T18:19:20.587Z,98965.08
2019-05-02T18:22:26.204Z,98967.92
2019-05-02T18:25:30.767Z,98971.64
2019-05-02T18:28:46.244Z,98979.43
2019-05-02T18:31:47.258Z,98983.16
2019-05-02T18:34:52.065Z,98987.84
2019-05-02T18:37:57.958Z,98987.13
2019-05-02T18:41:07.754Z,98989.98
2019-05-02T18:44:17.089Z,98999.14
2019-05-02T18:47:24.639Z,98999.80
2019-05-02T18:50:36.746Z,98999.26
2019-05-02T18:53:42.513Z,99009.04
2019-05-02T18:56:51.283Z,99014.10
2019-05-02T18:59:56.467Z,99019.03
2019-05-02T19:03:07.567Z,99023.52
2019-05-02T19:06:11.682Z,99034.59
2019-05-02T19:09:21.859Z,99032.64
2019-05-02T19:12:26.071Z,99042.89
2019-05-02T19:15:34.644Z,99048.23
2019-05-02T19:18:42.557Z,99050.41
2019-05-02T19:21:47.779Z,99053.77
2019-05-02T19:24:53.513Z,99048.95
2019-05-02T19:28:05.968Z,99055.13
2019-05-02T19:31:11.737Z,99056.76
2019-05-02T19:34:22.888Z,99051.97
2019-05-02T19:37:24.966Z,99053.42
2019-05-02T19:40:31.805Z,99062.50
2019-05-02T19:43:40.246Z,99059.17
2019-05-02T19:46:47.606Z,99071.67
2019-05-02T19:49:54.420Z,99074.10
2019-05-02T19:53:04.098Z,99078.02
2019-05-02T19:56:08.617Z,99077.50
2019-05-02T19:59:16.828Z,99083.32
2019-05-02T20:02:23.769Z,99078.46
2019-05-02T20:05:29.787Z,99081.66
2019-05-02T20:08:35.477Z,99082.03
2019-05-02T20:11:42.540Z,99083.45
2019-05-02T20:14:48.894Z,99090.11
2019-05-02T20:18:00.442Z,99088.05
2019-05-02T20:21:23.426Z,99089.50
2019-05-02T20:24:22.750Z,99085.70
2019-05-02T20:27:28.936Z,99092.97
2019-05-02T20:30:34.839Z,99090.56
2019-05-02T20:33:40.642Z,99098.43
2019-05-02T20:36:46.573Z,99100.93
2019-05-02T20:39:52.395Z,99096.06
2019-05-02T20:42:58.211Z,99098.23
2019-05-02T20:46:04.198Z,99093.41
2019-05-02T20:49:10.305Z,99096.78
2019-05-02T20:52:16.064Z,99097.08
2019-05-02T20:55:21.975Z,99095.84
2019-05-02T20:58:27.665Z,99100.09
2019-05-02T21:01:33.381Z,99106.50
2019-05-02T21:04:42.327Z,99103.35
2019-05-02T21:08:05.440Z,99106.70
2019-05-02T21:11:12.422Z,99105.86
2019-05-02T21:14:18.373Z,99108.14
2019-05-02T21:17:24.253Z,99102.19
2019-05-02T21:20:37.537Z,99106.62
2019-05-02T21:23:47.334Z,99109.96
2019-05-02T21:26:52.509Z,99107.09
2019-05-02T21:30:02.370Z,99112.47
2019-05-02T21:33:22.386Z,99112.58
2019-05-02T21:36:28.129Z,99123.05
2019-05-02T21:39:33.957Z,99119.61
2019-05-02T21:42:39.742Z,99114.48
2019-05-02T21:45:52.796Z,99121.70
2019-05-02T21:48:58.607Z,99125.36
2019-05-02T21:52:16.044Z,99127.09
2019-05-02T21:55:39.349Z,99131.45
2019-05-02T21:59:03.043Z,99126.91
2019-05-02T22:02:15.539Z,99136.98
2019-05-02T22:05:28.968Z,99145.70
2019-05-02T22:08:34.763Z,99146.87
2019-05-02T22:11:42.891Z,99153.48
2019-05-02T22:14:48.911Z,99146.27
2019-05-02T22:17:54.728Z,99149.03
2019-05-02T22:21:01.694Z,99155.13
2019-05-02T22:24:11.538Z,99157.04
2019-05-02T22:27:15.116Z,99149.22
2019-05-02T22:30:21.959Z,99152.61
2019-05-02T22:33:27.935Z,99154.02
2019-05-02T22:36:33.742Z,99152.19
2019-05-02T22:39:53.614Z,99156.56
2019-05-02T22:42:59.299Z,99147.35
2019-05-02T22:46:06.965Z,99148.53
2019-05-02T22:49:14.535Z,99148.53
2019-05-02T22:52:21.830Z,99145.11
2019-05-02T22:55:27.675Z,99138.83
2019-05-02T22:58:33.412Z,99145.42
2019-05-02T23:01:39.205Z,99139.15
2019-05-02T23:04:44.971Z,99147.80
2019-05-02T23:07:52.281Z,99137.73
2019-05-02T23:10:58.169Z,99143.00
2019-05-02T23:14:03.999Z,99109.86
2019-05-02T23:17:09.698Z,99139.11
2019-05-02T23:20:15.653Z,99142.97
2019-05-02T23:23:21.581Z,99134.05
2019-05-02T23:26:56.690Z,99135.36
2019-05-02T23:30:03.005Z,99140.13
2019-05-02T23:33:09.201Z,99143.84
2019-05-02T23:36:14.966Z,99126.95
2019-05-02T23:39:20.823Z,99138.09
2019-05-02T23:42:26.513Z,99133.55
2019-05-02T23:45:32.327Z,99132.72
2019-05-02T23:48:38.108Z,99136.38
2019-05-02T23:51:43.885Z,99132.38
2019-05-02T23:54:52.323Z,99133.59
2019-05-02T23:57:57.063Z,99133.59
